Millenium Air

Millenium Air Since 1998



 METAR AND TAF INFORMATION
METAR FOR LIRQ
ADDS - METARS form results

(2116 UTC 09 April 2020)
Data provider http://aviationweather.gov/metar/data/
 
METAR text: LIRQ 092050Z 10005KT CAVOK 13/M00 Q1022
Conditions at: LIRQ (FIRENZE/PERETOLA, IT) observed 2050 UTC 09 April 2020
Temperature: 13.0°C (55°F)
Dewpoint: 0.0°C (32°F) [RH = 41%]
Pressure (altimeter): 30.18 inches Hg (1022.0 mb)
Winds: from the E (100 degrees) at 6 MPH (5 knots; 2.6 m/s)
Visibility: 6 or more miles (10+ km)
Ceiling: ceiling and visibility are OK
Clouds: unknown
Weather: no significant weather observed at this time

METAR text: LIRQ 092020Z 08006KT CAVOK 12/00 Q1021
Conditions at: LIRQ (FIRENZE/PERETOLA, IT) observed 2020 UTC 09 April 2020
Temperature: 12.0°C (54°F)
Dewpoint: 0.0°C (32°F) [RH = 44%]
Pressure (altimeter): 30.15 inches Hg (1021.0 mb)
Winds: from the E (80 degrees) at 7 MPH (6 knots; 3.1 m/s)
Visibility: 6 or more miles (10+ km)
Ceiling: ceiling and visibility are OK
Clouds: unknown
Weather: no significant weather observed at this time

Forecast for: LIRQ (FIRENZE/PERETOLA, IT)
Text: TAF LIRQ 091700Z 0918/1018 VRB05KT CAVOK
Forecast period: 1800 UTC 09 April 2020 to 1800 UTC 10 April 2020
Forecast type: FROM: standard forecast or significant change
Winds: variable direction winds at 6 MPH (5 knots; 2.6 m/s)
Visibility: 6 or more miles 10+ km)
Ceiling: unknown
Clouds: missing
Weather: NSW  (no significant weather)

 AIRPORT MAP

 RUNWAY INFORMATION
Runway 05 Runway length 5425 ft Runway width 98 ft
Runway elevation 123 ft Runway displaced threshold 492 ft Runway heading 48
Runway 23 Runway length 5425 ft Runway width 98 ft
Runway elevation 132 ft Runway displaced threshold 2287 ft Runway heading 228

 AIRPORT FREQUENCIES
Type APP Name APP Frequency 126.075 MHZ
Type ATIS Name ATIS Frequency 129.35 MHZ
Type TWR Name FIRENZE TW Frequency 118.3 MHZ

 AIRPORT NEAR NAVIGATION AIDS
Type VOR-DME Name Peretola Frequency 112500 KHZ